SBCR/CMG METAR and TAF weather

Enter ICAO airport designator
Station Type Date Time Source
SBCR METAR 2021/09/26 21:00 UTC NOAA

SBCR 262100Z 01002KT 2000 FU NSC 38/16 Q1007


Station Type Date Time Source
SBCR Decoded METAR 2021/09/26 21:00 UTC NOAA

Corumba, Brazil (SBCR) 19-05S 057-30W
Sep 26, 2021 - 05:00 PM EDT / 2021.09.26 2100 UTC
Wind: from the N (010 degrees) at 2 MPH (2 KT):0
Visibility: 1 mile(s):0
Weather: smoke
Temperature: 100 F (38 C)
Heat index: 100.6 F (38.1 C):1
Dew Point: 60 F (16 C)
Relative Humidity: 27%
Pressure (altimeter): 29.74 in. Hg (1007 hPa)
ob: SBCR 262100Z 01002KT 2000 FU NSC 38/16 Q1007
cycle: 21

Station Type Date Time Source
SBCR TAF 2021/09/27 06:08 UTC NOAA

TAF SBCR 270400Z 2706/2806 05005KT 5000 HZ NSC TN26/2709Z TX40/2718Z PROB30 2715/2720 32005KT 3000 HZ
RMK PGQ

Example: see airport list